East Baffin - northern half: Past 24 Hour Conditions

 

Rankin Inlet Airport

07:00 AM CDT 31 October 2014
This table is a summary of hourly weather conditions for the past 24 hours.
Date / Time
(CDT)
Wind(knots) Conditions Visibility(km) Pressure(kPa) Air tempC) Relative humidity(%) Dew pointC) Wind Chill
31 October 2014
7:00 NW 3 Ice Fog 0.4 102.2 -16 83 -18 -20
6:00 N 1 Ice Crystals 6 102.2 -16 82 -19 -18
5:00 NNE 3 Ice Crystals 6 102.3 -17 82 -19 -21
4:00 NW 5 Ice Crystals 24 102.3 -18 81 -21 -25
3:00 NW 5 Ice Crystals 24 102.3 -19 80 -22 -26
2:00 NW 8 Ice Crystals 24 102.4 -19 80 -22 -28
1:00 WNW 8 Ice Crystals 24 102.4 -16 82 -19 -24
0:00 WNW 8 Ice Crystals 24 102.4 -16 83 -19 -24
30 October 2014
23:00 NW 4 Ice Crystals 24 102.5 -17 82 -20 -23
22:00 NW 8 Ice Crystals 24 102.6 -17 82 -20 -26
21:00 W 10 Ice Crystals 24 102.6 -15 83 -18 -24
20:00 WNW 13 Ice Crystals 16 102.6 -16 83 -18 -26
19:00 WNW 12 Partly Cloudy 24 102.7 -17 82 -19 -27
18:00 WNW 10 Partly Cloudy 24 102.8 -17 81 -20 -27
17:00 WNW 12 Mainly Sunny 24 102.8 -18 81 -20 -28
16:00 NW 11 Partly Cloudy 24 102.8 -17 82 -19 -27
15:00 NW 10 Mainly Sunny 24 102.8 -16 82 -19 -26
14:00 NNW 12 Mainly Sunny 24 102.7 -17 82 -19 -27
13:00 N 11 Mainly Sunny 24 102.7 -17 82 -19 -26
12:00 N 10 Mainly Sunny 24 102.7 -18 81 -20 -28
11:00 NNW 13 Mainly Sunny 24 102.7 -18 80 -21 -29
10:00 NNW 15 Drifting Snow 16 102.7 -19 80 -22 -31
9:00 N 14 Mainly Sunny 24 102.6 -18 81 -20 -29
8:00 N 15 Mainly Clear 24 102.6 -18 82 -20 -29
7:00 N 15 Light Snow 24 102.6 -16 83 -18 -27
 
Map of Arctic - Eastern Arctic marine weather areas Baker Lake Airport Chesterfield Inlet Airport Coral Harbour Airport Gjoa Haven Airport Kugaaruk Airport Rankin Inlet Airport Shepherd Bay Airport Whale Cove Airport Arctic Bay Brevoort Island Qikiqtarjuaq Airport Cape Dorset Airport Cape Dyer Cape Hooper Clyde Airport Grise Fiord Airport Hall Beach Airport Igloolik Airport Iqaluit Airport Longstaff Bluff Pangnirtung Airport Pond Inlet Airport Repulse Bay Airport Resolute Airport Resolution Island Rowley Island Airport Taloyoak Airport Wager Bay Akulivik Airport Ivujivik Airport Puvirnituq Airport Kangiqsujuaq Airport Kangirsuk Airport Quaqtaq Airport Tasiujaq Airport Cape Kakkiviak Cape Kiglapait Nain Airport Saglek Cape Mercy Kimmirut Airport Aupaluk Airport Salluit Airport Kangiqsualujjuaq Airport Fort Ross
Legend: buoyBuoy land stationLand Station